<?xml version="1.0" encoding="UTF-8" standalone="no" ?>
<gpx xmlns="http://www.topografix.com/GPX/1/1" xmlns:xsi="http://www.w3.org/2001/XMLSchema-instance" xsi:schemaLocation="http://www.topografix.com/GPX/1/1 http://www.topografix.com/GPX/1/1/gpx.xsd" version="1.1" creator="VisuGPX - https://www.visugpx.com">
  <metadata>
    <name>14271197-PAT Savigny</name>
  </metadata>
  <trk>
    <name><![CDATA[14271197-PAT Savigny]]></name>
    <trkseg>
      <trkpt lat="45.81707" lon="4.575">
        <ele>297</ele>
        <time>2022-02-15T14:09:48Z</time>
      </trkpt>
      <trkpt lat="45.81644" lon="4.57489">
        <ele>297</ele>
        <time>2022-02-15T14:11:13Z</time>
      </trkpt>
      <trkpt lat="45.81636" lon="4.57488">
        <ele>297</ele>
        <time>2022-02-15T14:11:23Z</time>
      </trkpt>
      <trkpt lat="45.81577" lon="4.57464">
        <ele>295</ele>
        <time>2022-02-15T14:12:45Z</time>
      </trkpt>
      <trkpt lat="45.8154" lon="4.57501">
        <ele>288</ele>
        <time>2022-02-15T14:13:45Z</time>
      </trkpt>
      <trkpt lat="45.81505" lon="4.57526">
        <ele>283</ele>
        <time>2022-02-15T14:14:38Z</time>
      </trkpt>
      <trkpt lat="45.8149" lon="4.57531">
        <ele>281</ele>
        <time>2022-02-15T14:14:58Z</time>
      </trkpt>
      <trkpt lat="45.81454" lon="4.5753">
        <ele>278</ele>
        <time>2022-02-15T14:15:46Z</time>
      </trkpt>
      <trkpt lat="45.81441" lon="4.57527">
        <ele>277</ele>
        <time>2022-02-15T14:16:04Z</time>
      </trkpt>
      <trkpt lat="45.81426" lon="4.57528">
        <ele>275</ele>
        <time>2022-02-15T14:16:24Z</time>
      </trkpt>
      <trkpt lat="45.81423" lon="4.57531">
        <ele>275</ele>
        <time>2022-02-15T14:16:29Z</time>
      </trkpt>
      <trkpt lat="45.81418" lon="4.5753">
        <ele>275</ele>
        <time>2022-02-15T14:16:35Z</time>
      </trkpt>
      <trkpt lat="45.81412" lon="4.57536">
        <ele>274</ele>
        <time>2022-02-15T14:16:45Z</time>
      </trkpt>
      <trkpt lat="45.81399" lon="4.57542">
        <ele>274</ele>
        <time>2022-02-15T14:17:03Z</time>
      </trkpt>
      <trkpt lat="45.81316" lon="4.57503">
        <ele>278</ele>
        <time>2022-02-15T14:19:00Z</time>
      </trkpt>
      <trkpt lat="45.81336" lon="4.57501">
        <ele>276</ele>
        <time>2022-02-15T14:19:27Z</time>
      </trkpt>
      <trkpt lat="45.81348" lon="4.57496">
        <ele>276</ele>
        <time>2022-02-15T14:19:43Z</time>
      </trkpt>
      <trkpt lat="45.81356" lon="4.57492">
        <ele>276</ele>
        <time>2022-02-15T14:19:55Z</time>
      </trkpt>
      <trkpt lat="45.81364" lon="4.57487">
        <ele>277</ele>
        <time>2022-02-15T14:20:06Z</time>
      </trkpt>
      <trkpt lat="45.81369" lon="4.57448">
        <ele>279</ele>
        <time>2022-02-15T14:20:43Z</time>
      </trkpt>
      <trkpt lat="45.81364" lon="4.57417">
        <ele>281</ele>
        <time>2022-02-15T14:21:13Z</time>
      </trkpt>
      <trkpt lat="45.81356" lon="4.57399">
        <ele>283</ele>
        <time>2022-02-15T14:21:33Z</time>
      </trkpt>
      <trkpt lat="45.81342" lon="4.57389">
        <ele>284</ele>
        <time>2022-02-15T14:21:54Z</time>
      </trkpt>
      <trkpt lat="45.81319" lon="4.57364">
        <ele>286</ele>
        <time>2022-02-15T14:22:32Z</time>
      </trkpt>
      <trkpt lat="45.81299" lon="4.57335">
        <ele>288</ele>
        <time>2022-02-15T14:23:10Z</time>
      </trkpt>
      <trkpt lat="45.81286" lon="4.57313">
        <ele>290</ele>
        <time>2022-02-15T14:23:37Z</time>
      </trkpt>
      <trkpt lat="45.81277" lon="4.5729">
        <ele>291</ele>
        <time>2022-02-15T14:24:01Z</time>
      </trkpt>
      <trkpt lat="45.81269" lon="4.57232">
        <ele>295</ele>
        <time>2022-02-15T14:24:56Z</time>
      </trkpt>
      <trkpt lat="45.81266" lon="4.57188">
        <ele>298</ele>
        <time>2022-02-15T14:25:37Z</time>
      </trkpt>
      <trkpt lat="45.81261" lon="4.57161">
        <ele>299</ele>
        <time>2022-02-15T14:26:03Z</time>
      </trkpt>
      <trkpt lat="45.81222" lon="4.57026">
        <ele>304</ele>
        <time>2022-02-15T14:28:19Z</time>
      </trkpt>
      <trkpt lat="45.81219" lon="4.57001">
        <ele>304</ele>
        <time>2022-02-15T14:28:43Z</time>
      </trkpt>
      <trkpt lat="45.81222" lon="4.56968">
        <ele>303</ele>
        <time>2022-02-15T14:29:14Z</time>
      </trkpt>
      <trkpt lat="45.81228" lon="4.5694">
        <ele>301</ele>
        <time>2022-02-15T14:29:41Z</time>
      </trkpt>
      <trkpt lat="45.81266" lon="4.56855">
        <ele>295</ele>
        <time>2022-02-15T14:31:15Z</time>
      </trkpt>
      <trkpt lat="45.8126" lon="4.56846">
        <ele>294</ele>
        <time>2022-02-15T14:31:27Z</time>
      </trkpt>
      <trkpt lat="45.81253" lon="4.56841">
        <ele>293</ele>
        <time>2022-02-15T14:31:37Z</time>
      </trkpt>
      <trkpt lat="45.81256" lon="4.56796">
        <ele>294</ele>
        <time>2022-02-15T14:32:19Z</time>
      </trkpt>
      <trkpt lat="45.81247" lon="4.56744">
        <ele>296</ele>
        <time>2022-02-15T14:33:09Z</time>
      </trkpt>
      <trkpt lat="45.8124" lon="4.56724">
        <ele>298</ele>
        <time>2022-02-15T14:33:30Z</time>
      </trkpt>
      <trkpt lat="45.81232" lon="4.56711">
        <ele>300</ele>
        <time>2022-02-15T14:33:46Z</time>
      </trkpt>
      <trkpt lat="45.81221" lon="4.56708">
        <ele>302</ele>
        <time>2022-02-15T14:34:01Z</time>
      </trkpt>
      <trkpt lat="45.81169" lon="4.56703">
        <ele>315</ele>
        <time>2022-02-15T14:35:10Z</time>
      </trkpt>
      <trkpt lat="45.81156" lon="4.56692">
        <ele>318</ele>
        <time>2022-02-15T14:35:31Z</time>
      </trkpt>
      <trkpt lat="45.81112" lon="4.56673">
        <ele>326</ele>
        <time>2022-02-15T14:36:32Z</time>
      </trkpt>
      <trkpt lat="45.81075" lon="4.56631">
        <ele>331</ele>
        <time>2022-02-15T14:37:35Z</time>
      </trkpt>
      <trkpt lat="45.81063" lon="4.5662">
        <ele>333</ele>
        <time>2022-02-15T14:37:54Z</time>
      </trkpt>
      <trkpt lat="45.81005" lon="4.56586">
        <ele>343</ele>
        <time>2022-02-15T14:39:17Z</time>
      </trkpt>
      <trkpt lat="45.80988" lon="4.56582">
        <ele>345</ele>
        <time>2022-02-15T14:39:40Z</time>
      </trkpt>
      <trkpt lat="45.80901" lon="4.56528">
        <ele>353</ele>
        <time>2022-02-15T14:41:47Z</time>
      </trkpt>
      <trkpt lat="45.80859" lon="4.5649">
        <ele>356</ele>
        <time>2022-02-15T14:42:53Z</time>
      </trkpt>
      <trkpt lat="45.80827" lon="4.56465">
        <ele>359</ele>
        <time>2022-02-15T14:43:42Z</time>
      </trkpt>
      <trkpt lat="45.80812" lon="4.56444">
        <ele>360</ele>
        <time>2022-02-15T14:44:10Z</time>
      </trkpt>
      <trkpt lat="45.8081" lon="4.56428">
        <ele>360</ele>
        <time>2022-02-15T14:44:25Z</time>
      </trkpt>
      <trkpt lat="45.80802" lon="4.56409">
        <ele>361</ele>
        <time>2022-02-15T14:44:46Z</time>
      </trkpt>
      <trkpt lat="45.80792" lon="4.5639">
        <ele>363</ele>
        <time>2022-02-15T14:45:08Z</time>
      </trkpt>
      <trkpt lat="45.80788" lon="4.56358">
        <ele>366</ele>
        <time>2022-02-15T14:45:38Z</time>
      </trkpt>
      <trkpt lat="45.80773" lon="4.56328">
        <ele>369</ele>
        <time>2022-02-15T14:46:12Z</time>
      </trkpt>
      <trkpt lat="45.80773" lon="4.56309">
        <ele>372</ele>
        <time>2022-02-15T14:46:30Z</time>
      </trkpt>
      <trkpt lat="45.80779" lon="4.56315">
        <ele>371</ele>
        <time>2022-02-15T14:46:40Z</time>
      </trkpt>
      <trkpt lat="45.8079" lon="4.56311">
        <ele>371</ele>
        <time>2022-02-15T14:46:55Z</time>
      </trkpt>
      <trkpt lat="45.80779" lon="4.56315">
        <ele>371</ele>
        <time>2022-02-15T14:47:10Z</time>
      </trkpt>
      <trkpt lat="45.80757" lon="4.56291">
        <ele>375</ele>
        <time>2022-02-15T14:47:47Z</time>
      </trkpt>
      <trkpt lat="45.80742" lon="4.56264">
        <ele>380</ele>
        <time>2022-02-15T14:48:19Z</time>
      </trkpt>
      <trkpt lat="45.80732" lon="4.5623">
        <ele>384</ele>
        <time>2022-02-15T14:48:53Z</time>
      </trkpt>
      <trkpt lat="45.80706" lon="4.56202">
        <ele>388</ele>
        <time>2022-02-15T14:49:37Z</time>
      </trkpt>
      <trkpt lat="45.80677" lon="4.56177">
        <ele>391</ele>
        <time>2022-02-15T14:50:22Z</time>
      </trkpt>
      <trkpt lat="45.80665" lon="4.56154">
        <ele>394</ele>
        <time>2022-02-15T14:50:49Z</time>
      </trkpt>
      <trkpt lat="45.80657" lon="4.56125">
        <ele>395</ele>
        <time>2022-02-15T14:51:18Z</time>
      </trkpt>
      <trkpt lat="45.80542" lon="4.56099">
        <ele>402</ele>
        <time>2022-02-15T14:53:53Z</time>
      </trkpt>
      <trkpt lat="45.80517" lon="4.5609">
        <ele>403</ele>
        <time>2022-02-15T14:54:27Z</time>
      </trkpt>
      <trkpt lat="45.80504" lon="4.56093">
        <ele>403</ele>
        <time>2022-02-15T14:54:45Z</time>
      </trkpt>
      <trkpt lat="45.80499" lon="4.56076">
        <ele>403</ele>
        <time>2022-02-15T14:55:02Z</time>
      </trkpt>
      <trkpt lat="45.80511" lon="4.5597">
        <ele>404</ele>
        <time>2022-02-15T14:56:42Z</time>
      </trkpt>
      <trkpt lat="45.80513" lon="4.55931">
        <ele>406</ele>
        <time>2022-02-15T14:57:18Z</time>
      </trkpt>
      <trkpt lat="45.80517" lon="4.55902">
        <ele>407</ele>
        <time>2022-02-15T14:57:46Z</time>
      </trkpt>
      <trkpt lat="45.80523" lon="4.55892">
        <ele>408</ele>
        <time>2022-02-15T14:57:58Z</time>
      </trkpt>
      <trkpt lat="45.8056" lon="4.55761">
        <ele>412</ele>
        <time>2022-02-15T15:00:10Z</time>
      </trkpt>
      <trkpt lat="45.80577" lon="4.55715">
        <ele>412</ele>
        <time>2022-02-15T15:00:58Z</time>
      </trkpt>
      <trkpt lat="45.80604" lon="4.55571">
        <ele>415</ele>
        <time>2022-02-15T15:03:17Z</time>
      </trkpt>
      <trkpt lat="45.80612" lon="4.5552">
        <ele>416</ele>
        <time>2022-02-15T15:04:05Z</time>
      </trkpt>
      <trkpt lat="45.80613" lon="4.5549">
        <ele>417</ele>
        <time>2022-02-15T15:04:33Z</time>
      </trkpt>
      <trkpt lat="45.8064" lon="4.55395">
        <ele>424</ele>
        <time>2022-02-15T15:06:09Z</time>
      </trkpt>
      <trkpt lat="45.80687" lon="4.55304">
        <ele>439</ele>
        <time>2022-02-15T15:07:54Z</time>
      </trkpt>
      <trkpt lat="45.80713" lon="4.5525">
        <ele>446</ele>
        <time>2022-02-15T15:08:55Z</time>
      </trkpt>
      <trkpt lat="45.80747" lon="4.55207">
        <ele>450</ele>
        <time>2022-02-15T15:09:56Z</time>
      </trkpt>
      <trkpt lat="45.80772" lon="4.55152">
        <ele>453</ele>
        <time>2022-02-15T15:10:57Z</time>
      </trkpt>
      <trkpt lat="45.80805" lon="4.55101">
        <ele>453</ele>
        <time>2022-02-15T15:12:02Z</time>
      </trkpt>
      <trkpt lat="45.80813" lon="4.55078">
        <ele>453</ele>
        <time>2022-02-15T15:12:25Z</time>
      </trkpt>
      <trkpt lat="45.80833" lon="4.55031">
        <ele>452</ele>
        <time>2022-02-15T15:13:17Z</time>
      </trkpt>
      <trkpt lat="45.80859" lon="4.54979">
        <ele>449</ele>
        <time>2022-02-15T15:14:16Z</time>
      </trkpt>
      <trkpt lat="45.80889" lon="4.54923">
        <ele>449</ele>
        <time>2022-02-15T15:15:22Z</time>
      </trkpt>
      <trkpt lat="45.80927" lon="4.5488">
        <ele>452</ele>
        <time>2022-02-15T15:16:26Z</time>
      </trkpt>
      <trkpt lat="45.80944" lon="4.54866">
        <ele>455</ele>
        <time>2022-02-15T15:16:53Z</time>
      </trkpt>
      <trkpt lat="45.80959" lon="4.5486">
        <ele>457</ele>
        <time>2022-02-15T15:17:13Z</time>
      </trkpt>
      <trkpt lat="45.81006" lon="4.54847">
        <ele>464</ele>
        <time>2022-02-15T15:18:17Z</time>
      </trkpt>
      <trkpt lat="45.8103" lon="4.54835">
        <ele>467</ele>
        <time>2022-02-15T15:18:51Z</time>
      </trkpt>
      <trkpt lat="45.81076" lon="4.54789">
        <ele>477</ele>
        <time>2022-02-15T15:20:06Z</time>
      </trkpt>
      <trkpt lat="45.81084" lon="4.54779">
        <ele>479</ele>
        <time>2022-02-15T15:20:20Z</time>
      </trkpt>
      <trkpt lat="45.81089" lon="4.54759">
        <ele>482</ele>
        <time>2022-02-15T15:20:40Z</time>
      </trkpt>
      <trkpt lat="45.81088" lon="4.54734">
        <ele>487</ele>
        <time>2022-02-15T15:21:03Z</time>
      </trkpt>
      <trkpt lat="45.81063" lon="4.54723">
        <ele>488</ele>
        <time>2022-02-15T15:21:38Z</time>
      </trkpt>
      <trkpt lat="45.81051" lon="4.54713">
        <ele>489</ele>
        <time>2022-02-15T15:21:57Z</time>
      </trkpt>
      <trkpt lat="45.81049" lon="4.547">
        <ele>491</ele>
        <time>2022-02-15T15:22:09Z</time>
      </trkpt>
      <trkpt lat="45.81055" lon="4.5463">
        <ele>499</ele>
        <time>2022-02-15T15:23:15Z</time>
      </trkpt>
      <trkpt lat="45.81073" lon="4.5457">
        <ele>504</ele>
        <time>2022-02-15T15:24:15Z</time>
      </trkpt>
      <trkpt lat="45.81084" lon="4.54507">
        <ele>508</ele>
        <time>2022-02-15T15:25:16Z</time>
      </trkpt>
      <trkpt lat="45.81099" lon="4.54439">
        <ele>509</ele>
        <time>2022-02-15T15:26:22Z</time>
      </trkpt>
      <trkpt lat="45.8111" lon="4.54373">
        <ele>511</ele>
        <time>2022-02-15T15:27:25Z</time>
      </trkpt>
      <trkpt lat="45.81124" lon="4.54325">
        <ele>513</ele>
        <time>2022-02-15T15:28:14Z</time>
      </trkpt>
      <trkpt lat="45.81146" lon="4.54282">
        <ele>515</ele>
        <time>2022-02-15T15:29:03Z</time>
      </trkpt>
      <trkpt lat="45.81166" lon="4.5425">
        <ele>519</ele>
        <time>2022-02-15T15:29:43Z</time>
      </trkpt>
      <trkpt lat="45.81188" lon="4.54222">
        <ele>519</ele>
        <time>2022-02-15T15:30:23Z</time>
      </trkpt>
      <trkpt lat="45.81207" lon="4.54203">
        <ele>519</ele>
        <time>2022-02-15T15:30:53Z</time>
      </trkpt>
      <trkpt lat="45.81227" lon="4.54165">
        <ele>522</ele>
        <time>2022-02-15T15:31:38Z</time>
      </trkpt>
      <trkpt lat="45.81262" lon="4.54129">
        <ele>521</ele>
        <time>2022-02-15T15:32:35Z</time>
      </trkpt>
      <trkpt lat="45.81286" lon="4.541">
        <ele>520</ele>
        <time>2022-02-15T15:33:17Z</time>
      </trkpt>
      <trkpt lat="45.81291" lon="4.54078">
        <ele>520</ele>
        <time>2022-02-15T15:33:39Z</time>
      </trkpt>
      <trkpt lat="45.81291" lon="4.54061">
        <ele>519</ele>
        <time>2022-02-15T15:33:54Z</time>
      </trkpt>
      <trkpt lat="45.81301" lon="4.54038">
        <ele>519</ele>
        <time>2022-02-15T15:34:20Z</time>
      </trkpt>
      <trkpt lat="45.81314" lon="4.54016">
        <ele>520</ele>
        <time>2022-02-15T15:34:46Z</time>
      </trkpt>
      <trkpt lat="45.81326" lon="4.54012">
        <ele>521</ele>
        <time>2022-02-15T15:35:03Z</time>
      </trkpt>
      <trkpt lat="45.8133" lon="4.54002">
        <ele>522</ele>
        <time>2022-02-15T15:35:14Z</time>
      </trkpt>
      <trkpt lat="45.81334" lon="4.53975">
        <ele>520</ele>
        <time>2022-02-15T15:35:39Z</time>
      </trkpt>
      <trkpt lat="45.81351" lon="4.53939">
        <ele>517</ele>
        <time>2022-02-15T15:36:20Z</time>
      </trkpt>
      <trkpt lat="45.8136" lon="4.53931">
        <ele>516</ele>
        <time>2022-02-15T15:36:34Z</time>
      </trkpt>
      <trkpt lat="45.81381" lon="4.53884">
        <ele>515</ele>
        <time>2022-02-15T15:37:26Z</time>
      </trkpt>
      <trkpt lat="45.81404" lon="4.5383">
        <ele>517</ele>
        <time>2022-02-15T15:38:25Z</time>
      </trkpt>
      <trkpt lat="45.81424" lon="4.53801">
        <ele>520</ele>
        <time>2022-02-15T15:39:03Z</time>
      </trkpt>
      <trkpt lat="45.81439" lon="4.53784">
        <ele>523</ele>
        <time>2022-02-15T15:39:28Z</time>
      </trkpt>
      <trkpt lat="45.81469" lon="4.53708">
        <ele>531</ele>
        <time>2022-02-15T15:40:49Z</time>
      </trkpt>
      <trkpt lat="45.8152" lon="4.53518">
        <ele>531</ele>
        <time>2022-02-15T15:43:59Z</time>
      </trkpt>
      <trkpt lat="45.81537" lon="4.53373">
        <ele>529</ele>
        <time>2022-02-15T15:46:15Z</time>
      </trkpt>
      <trkpt lat="45.81564" lon="4.53288">
        <ele>537</ele>
        <time>2022-02-15T15:47:42Z</time>
      </trkpt>
      <trkpt lat="45.81576" lon="4.53271">
        <ele>541</ele>
        <time>2022-02-15T15:48:05Z</time>
      </trkpt>
      <trkpt lat="45.81583" lon="4.53255">
        <ele>544</ele>
        <time>2022-02-15T15:48:22Z</time>
      </trkpt>
      <trkpt lat="45.81589" lon="4.53246">
        <ele>545</ele>
        <time>2022-02-15T15:48:34Z</time>
      </trkpt>
      <trkpt lat="45.81588" lon="4.53227">
        <ele>547</ele>
        <time>2022-02-15T15:48:52Z</time>
      </trkpt>
      <trkpt lat="45.81581" lon="4.53193">
        <ele>551</ele>
        <time>2022-02-15T15:49:25Z</time>
      </trkpt>
      <trkpt lat="45.81582" lon="4.53179">
        <ele>552</ele>
        <time>2022-02-15T15:49:38Z</time>
      </trkpt>
      <trkpt lat="45.81588" lon="4.53171">
        <ele>553</ele>
        <time>2022-02-15T15:49:49Z</time>
      </trkpt>
      <trkpt lat="45.81589" lon="4.53154">
        <ele>555</ele>
        <time>2022-02-15T15:50:05Z</time>
      </trkpt>
      <trkpt lat="45.81593" lon="4.53158">
        <ele>555</ele>
        <time>2022-02-15T15:50:11Z</time>
      </trkpt>
      <trkpt lat="45.81589" lon="4.53154">
        <ele>555</ele>
        <time>2022-02-15T15:50:18Z</time>
      </trkpt>
      <trkpt lat="45.8159" lon="4.53144">
        <ele>556</ele>
        <time>2022-02-15T15:50:27Z</time>
      </trkpt>
      <trkpt lat="45.8157" lon="4.53103">
        <ele>558</ele>
        <time>2022-02-15T15:51:14Z</time>
      </trkpt>
      <trkpt lat="45.81572" lon="4.53071">
        <ele>562</ele>
        <time>2022-02-15T15:51:43Z</time>
      </trkpt>
      <trkpt lat="45.81581" lon="4.53014">
        <ele>569</ele>
        <time>2022-02-15T15:52:38Z</time>
      </trkpt>
      <trkpt lat="45.81585" lon="4.5299">
        <ele>571</ele>
        <time>2022-02-15T15:53:01Z</time>
      </trkpt>
      <trkpt lat="45.81591" lon="4.52975">
        <ele>571</ele>
        <time>2022-02-15T15:53:17Z</time>
      </trkpt>
      <trkpt lat="45.81601" lon="4.52977">
        <ele>571</ele>
        <time>2022-02-15T15:53:30Z</time>
      </trkpt>
      <trkpt lat="45.81612" lon="4.52992">
        <ele>572</ele>
        <time>2022-02-15T15:53:51Z</time>
      </trkpt>
      <trkpt lat="45.81623" lon="4.52998">
        <ele>572</ele>
        <time>2022-02-15T15:54:06Z</time>
      </trkpt>
      <trkpt lat="45.81629" lon="4.52992">
        <ele>572</ele>
        <time>2022-02-15T15:54:16Z</time>
      </trkpt>
      <trkpt lat="45.81642" lon="4.52938">
        <ele>573</ele>
        <time>2022-02-15T15:55:09Z</time>
      </trkpt>
      <trkpt lat="45.81652" lon="4.52898">
        <ele>574</ele>
        <time>2022-02-15T15:55:49Z</time>
      </trkpt>
      <trkpt lat="45.81655" lon="4.52868">
        <ele>575</ele>
        <time>2022-02-15T15:56:17Z</time>
      </trkpt>
      <trkpt lat="45.81652" lon="4.52829">
        <ele>576</ele>
        <time>2022-02-15T15:56:53Z</time>
      </trkpt>
      <trkpt lat="45.81673" lon="4.52719">
        <ele>580</ele>
        <time>2022-02-15T15:58:39Z</time>
      </trkpt>
      <trkpt lat="45.81685" lon="4.52623">
        <ele>584</ele>
        <time>2022-02-15T16:00:10Z</time>
      </trkpt>
      <trkpt lat="45.81701" lon="4.52619">
        <ele>584</ele>
        <time>2022-02-15T16:00:32Z</time>
      </trkpt>
      <trkpt lat="45.81736" lon="4.52617">
        <ele>583</ele>
        <time>2022-02-15T16:01:19Z</time>
      </trkpt>
      <trkpt lat="45.81766" lon="4.52607">
        <ele>583</ele>
        <time>2022-02-15T16:02:00Z</time>
      </trkpt>
      <trkpt lat="45.81801" lon="4.52592">
        <ele>583</ele>
        <time>2022-02-15T16:02:48Z</time>
      </trkpt>
      <trkpt lat="45.81844" lon="4.52581">
        <ele>584</ele>
        <time>2022-02-15T16:03:47Z</time>
      </trkpt>
      <trkpt lat="45.81859" lon="4.52582">
        <ele>584</ele>
        <time>2022-02-15T16:04:07Z</time>
      </trkpt>
      <trkpt lat="45.81879" lon="4.52593">
        <ele>582</ele>
        <time>2022-02-15T16:04:35Z</time>
      </trkpt>
      <trkpt lat="45.819" lon="4.52613">
        <ele>578</ele>
        <time>2022-02-15T16:05:09Z</time>
      </trkpt>
      <trkpt lat="45.81923" lon="4.52623">
        <ele>578</ele>
        <time>2022-02-15T16:05:41Z</time>
      </trkpt>
      <trkpt lat="45.81939" lon="4.52636">
        <ele>576</ele>
        <time>2022-02-15T16:06:06Z</time>
      </trkpt>
      <trkpt lat="45.81956" lon="4.52697">
        <ele>566</ele>
        <time>2022-02-15T16:07:07Z</time>
      </trkpt>
      <trkpt lat="45.81968" lon="4.52709">
        <ele>565</ele>
        <time>2022-02-15T16:07:26Z</time>
      </trkpt>
      <trkpt lat="45.82066" lon="4.52881">
        <ele>545</ele>
        <time>2022-02-15T16:10:53Z</time>
      </trkpt>
      <trkpt lat="45.82087" lon="4.52903">
        <ele>544</ele>
        <time>2022-02-15T16:11:27Z</time>
      </trkpt>
      <trkpt lat="45.82102" lon="4.52927">
        <ele>540</ele>
        <time>2022-02-15T16:11:57Z</time>
      </trkpt>
      <trkpt lat="45.82121" lon="4.5295">
        <ele>537</ele>
        <time>2022-02-15T16:12:31Z</time>
      </trkpt>
      <trkpt lat="45.8213" lon="4.52982">
        <ele>533</ele>
        <time>2022-02-15T16:13:03Z</time>
      </trkpt>
      <trkpt lat="45.82148" lon="4.53074">
        <ele>527</ele>
        <time>2022-02-15T16:14:32Z</time>
      </trkpt>
      <trkpt lat="45.82158" lon="4.53141">
        <ele>523</ele>
        <time>2022-02-15T16:15:35Z</time>
      </trkpt>
      <trkpt lat="45.82163" lon="4.53164">
        <ele>522</ele>
        <time>2022-02-15T16:15:58Z</time>
      </trkpt>
      <trkpt lat="45.8217" lon="4.53179">
        <ele>520</ele>
        <time>2022-02-15T16:16:14Z</time>
      </trkpt>
      <trkpt lat="45.82179" lon="4.53188">
        <ele>517</ele>
        <time>2022-02-15T16:16:29Z</time>
      </trkpt>
      <trkpt lat="45.8219" lon="4.53186">
        <ele>516</ele>
        <time>2022-02-15T16:16:44Z</time>
      </trkpt>
      <trkpt lat="45.82209" lon="4.53164">
        <ele>516</ele>
        <time>2022-02-15T16:17:16Z</time>
      </trkpt>
      <trkpt lat="45.82242" lon="4.53148">
        <ele>511</ele>
        <time>2022-02-15T16:18:03Z</time>
      </trkpt>
      <trkpt lat="45.82256" lon="4.5316">
        <ele>508</ele>
        <time>2022-02-15T16:18:25Z</time>
      </trkpt>
      <trkpt lat="45.82297" lon="4.53295">
        <ele>491</ele>
        <time>2022-02-15T16:20:42Z</time>
      </trkpt>
      <trkpt lat="45.82302" lon="4.533">
        <ele>491</ele>
        <time>2022-02-15T16:20:50Z</time>
      </trkpt>
      <trkpt lat="45.82328" lon="4.53367">
        <ele>488</ele>
        <time>2022-02-15T16:22:01Z</time>
      </trkpt>
      <trkpt lat="45.82346" lon="4.53424">
        <ele>485</ele>
        <time>2022-02-15T16:22:59Z</time>
      </trkpt>
      <trkpt lat="45.82349" lon="4.53468">
        <ele>483</ele>
        <time>2022-02-15T16:23:40Z</time>
      </trkpt>
      <trkpt lat="45.8235" lon="4.53532">
        <ele>480</ele>
        <time>2022-02-15T16:24:40Z</time>
      </trkpt>
      <trkpt lat="45.82354" lon="4.53547">
        <ele>479</ele>
        <time>2022-02-15T16:24:55Z</time>
      </trkpt>
      <trkpt lat="45.8236" lon="4.53547">
        <ele>478</ele>
        <time>2022-02-15T16:25:03Z</time>
      </trkpt>
      <trkpt lat="45.8236" lon="4.53547">
        <ele>478</ele>
        <time>2022-02-15T16:25:03Z</time>
      </trkpt>
      <trkpt lat="45.82363" lon="4.53542">
        <ele>478</ele>
        <time>2022-02-15T16:25:09Z</time>
      </trkpt>
      <trkpt lat="45.82377" lon="4.53504">
        <ele>477</ele>
        <time>2022-02-15T16:25:49Z</time>
      </trkpt>
      <trkpt lat="45.82401" lon="4.53431">
        <ele>475</ele>
        <time>2022-02-15T16:27:04Z</time>
      </trkpt>
      <trkpt lat="45.82419" lon="4.53337">
        <ele>475</ele>
        <time>2022-02-15T16:28:35Z</time>
      </trkpt>
      <trkpt lat="45.82446" lon="4.53252">
        <ele>473</ele>
        <time>2022-02-15T16:30:02Z</time>
      </trkpt>
      <trkpt lat="45.82483" lon="4.53174">
        <ele>471</ele>
        <time>2022-02-15T16:31:29Z</time>
      </trkpt>
      <trkpt lat="45.82517" lon="4.53125">
        <ele>470</ele>
        <time>2022-02-15T16:32:34Z</time>
      </trkpt>
      <trkpt lat="45.8256" lon="4.53085">
        <ele>471</ele>
        <time>2022-02-15T16:33:42Z</time>
      </trkpt>
      <trkpt lat="45.82579" lon="4.53083">
        <ele>470</ele>
        <time>2022-02-15T16:34:07Z</time>
      </trkpt>
      <trkpt lat="45.82616" lon="4.53069">
        <ele>474</ele>
        <time>2022-02-15T16:34:59Z</time>
      </trkpt>
      <trkpt lat="45.82635" lon="4.53054">
        <ele>478</ele>
        <time>2022-02-15T16:35:27Z</time>
      </trkpt>
      <trkpt lat="45.82665" lon="4.5304">
        <ele>483</ele>
        <time>2022-02-15T16:36:10Z</time>
      </trkpt>
      <trkpt lat="45.82683" lon="4.53039">
        <ele>483</ele>
        <time>2022-02-15T16:36:34Z</time>
      </trkpt>
      <trkpt lat="45.82702" lon="4.53033">
        <ele>484</ele>
        <time>2022-02-15T16:37:00Z</time>
      </trkpt>
      <trkpt lat="45.82712" lon="4.53023">
        <ele>486</ele>
        <time>2022-02-15T16:37:16Z</time>
      </trkpt>
      <trkpt lat="45.8272" lon="4.53005">
        <ele>490</ele>
        <time>2022-02-15T16:37:36Z</time>
      </trkpt>
      <trkpt lat="45.82728" lon="4.53002">
        <ele>490</ele>
        <time>2022-02-15T16:37:47Z</time>
      </trkpt>
      <trkpt lat="45.8275" lon="4.52963">
        <ele>497</ele>
        <time>2022-02-15T16:38:33Z</time>
      </trkpt>
      <trkpt lat="45.82807" lon="4.52831">
        <ele>506</ele>
        <time>2022-02-15T16:40:58Z</time>
      </trkpt>
      <trkpt lat="45.82843" lon="4.52785">
        <ele>506</ele>
        <time>2022-02-15T16:42:02Z</time>
      </trkpt>
      <trkpt lat="45.82875" lon="4.52752">
        <ele>505</ele>
        <time>2022-02-15T16:42:55Z</time>
      </trkpt>
      <trkpt lat="45.82893" lon="4.52729">
        <ele>507</ele>
        <time>2022-02-15T16:43:27Z</time>
      </trkpt>
      <trkpt lat="45.8293" lon="4.52703">
        <ele>506</ele>
        <time>2022-02-15T16:44:22Z</time>
      </trkpt>
      <trkpt lat="45.82977" lon="4.52678">
        <ele>503</ele>
        <time>2022-02-15T16:45:29Z</time>
      </trkpt>
      <trkpt lat="45.83034" lon="4.52586">
        <ele>505</ele>
        <time>2022-02-15T16:47:23Z</time>
      </trkpt>
      <trkpt lat="45.83057" lon="4.52531">
        <ele>505</ele>
        <time>2022-02-15T16:48:23Z</time>
      </trkpt>
      <trkpt lat="45.83115" lon="4.52432">
        <ele>501</ele>
        <time>2022-02-15T16:50:23Z</time>
      </trkpt>
      <trkpt lat="45.8313" lon="4.52397">
        <ele>502</ele>
        <time>2022-02-15T16:51:01Z</time>
      </trkpt>
      <trkpt lat="45.83151" lon="4.52322">
        <ele>505</ele>
        <time>2022-02-15T16:52:16Z</time>
      </trkpt>
      <trkpt lat="45.83154" lon="4.5228">
        <ele>507</ele>
        <time>2022-02-15T16:52:56Z</time>
      </trkpt>
      <trkpt lat="45.83147" lon="4.52209">
        <ele>513</ele>
        <time>2022-02-15T16:54:02Z</time>
      </trkpt>
      <trkpt lat="45.8313" lon="4.52127">
        <ele>519</ele>
        <time>2022-02-15T16:55:22Z</time>
      </trkpt>
      <trkpt lat="45.83129" lon="4.52032">
        <ele>523</ele>
        <time>2022-02-15T16:56:50Z</time>
      </trkpt>
      <trkpt lat="45.83139" lon="4.5197">
        <ele>527</ele>
        <time>2022-02-15T16:57:49Z</time>
      </trkpt>
      <trkpt lat="45.83159" lon="4.51946">
        <ele>526</ele>
        <time>2022-02-15T16:58:24Z</time>
      </trkpt>
      <trkpt lat="45.8318" lon="4.51908">
        <ele>526</ele>
        <time>2022-02-15T16:59:09Z</time>
      </trkpt>
      <trkpt lat="45.83205" lon="4.51852">
        <ele>524</ele>
        <time>2022-02-15T17:00:11Z</time>
      </trkpt>
      <trkpt lat="45.83218" lon="4.51852">
        <ele>521</ele>
        <time>2022-02-15T17:00:29Z</time>
      </trkpt>
      <trkpt lat="45.83232" lon="4.51872">
        <ele>516</ele>
        <time>2022-02-15T17:00:55Z</time>
      </trkpt>
      <trkpt lat="45.83256" lon="4.51927">
        <ele>508</ele>
        <time>2022-02-15T17:01:55Z</time>
      </trkpt>
      <trkpt lat="45.83277" lon="4.51943">
        <ele>503</ele>
        <time>2022-02-15T17:02:27Z</time>
      </trkpt>
      <trkpt lat="45.8329" lon="4.5196">
        <ele>500</ele>
        <time>2022-02-15T17:02:50Z</time>
      </trkpt>
      <trkpt lat="45.83294" lon="4.51973">
        <ele>499</ele>
        <time>2022-02-15T17:03:04Z</time>
      </trkpt>
      <trkpt lat="45.83305" lon="4.5201">
        <ele>496</ele>
        <time>2022-02-15T17:03:41Z</time>
      </trkpt>
      <trkpt lat="45.83325" lon="4.52067">
        <ele>490</ele>
        <time>2022-02-15T17:04:40Z</time>
      </trkpt>
      <trkpt lat="45.83365" lon="4.52102">
        <ele>484</ele>
        <time>2022-02-15T17:05:43Z</time>
      </trkpt>
      <trkpt lat="45.83371" lon="4.5211">
        <ele>483</ele>
        <time>2022-02-15T17:05:54Z</time>
      </trkpt>
      <trkpt lat="45.83379" lon="4.52137">
        <ele>481</ele>
        <time>2022-02-15T17:06:21Z</time>
      </trkpt>
      <trkpt lat="45.83396" lon="4.52164">
        <ele>478</ele>
        <time>2022-02-15T17:06:55Z</time>
      </trkpt>
      <trkpt lat="45.83403" lon="4.52187">
        <ele>476</ele>
        <time>2022-02-15T17:07:18Z</time>
      </trkpt>
      <trkpt lat="45.83426" lon="4.52244">
        <ele>471</ele>
        <time>2022-02-15T17:08:20Z</time>
      </trkpt>
      <trkpt lat="45.83438" lon="4.52262">
        <ele>469</ele>
        <time>2022-02-15T17:08:43Z</time>
      </trkpt>
      <trkpt lat="45.83466" lon="4.5229">
        <ele>465</ele>
        <time>2022-02-15T17:09:28Z</time>
      </trkpt>
      <trkpt lat="45.835" lon="4.5232">
        <ele>459</ele>
        <time>2022-02-15T17:10:21Z</time>
      </trkpt>
      <trkpt lat="45.83519" lon="4.52347">
        <ele>456</ele>
        <time>2022-02-15T17:10:57Z</time>
      </trkpt>
      <trkpt lat="45.83535" lon="4.52381">
        <ele>454</ele>
        <time>2022-02-15T17:11:35Z</time>
      </trkpt>
      <trkpt lat="45.8354" lon="4.5241">
        <ele>453</ele>
        <time>2022-02-15T17:12:03Z</time>
      </trkpt>
      <trkpt lat="45.83535" lon="4.52427">
        <ele>453</ele>
        <time>2022-02-15T17:12:20Z</time>
      </trkpt>
      <trkpt lat="45.83529" lon="4.52439">
        <ele>452</ele>
        <time>2022-02-15T17:12:34Z</time>
      </trkpt>
      <trkpt lat="45.8354" lon="4.52446">
        <ele>452</ele>
        <time>2022-02-15T17:12:50Z</time>
      </trkpt>
      <trkpt lat="45.83586" lon="4.52454">
        <ele>454</ele>
        <time>2022-02-15T17:13:52Z</time>
      </trkpt>
      <trkpt lat="45.83562" lon="4.52524">
        <ele>455</ele>
        <time>2022-02-15T17:15:04Z</time>
      </trkpt>
      <trkpt lat="45.83548" lon="4.52553">
        <ele>453</ele>
        <time>2022-02-15T17:15:37Z</time>
      </trkpt>
      <trkpt lat="45.83543" lon="4.52603">
        <ele>452</ele>
        <time>2022-02-15T17:16:24Z</time>
      </trkpt>
      <trkpt lat="45.83543" lon="4.52649">
        <ele>451</ele>
        <time>2022-02-15T17:17:07Z</time>
      </trkpt>
      <trkpt lat="45.83546" lon="4.52684">
        <ele>451</ele>
        <time>2022-02-15T17:17:40Z</time>
      </trkpt>
      <trkpt lat="45.83553" lon="4.52707">
        <ele>451</ele>
        <time>2022-02-15T17:18:03Z</time>
      </trkpt>
      <trkpt lat="45.83566" lon="4.52737">
        <ele>452</ele>
        <time>2022-02-15T17:18:36Z</time>
      </trkpt>
      <trkpt lat="45.8357" lon="4.52757">
        <ele>452</ele>
        <time>2022-02-15T17:18:55Z</time>
      </trkpt>
      <trkpt lat="45.83544" lon="4.52839">
        <ele>445</ele>
        <time>2022-02-15T17:20:19Z</time>
      </trkpt>
      <trkpt lat="45.83522" lon="4.52884">
        <ele>440</ele>
        <time>2022-02-15T17:21:10Z</time>
      </trkpt>
      <trkpt lat="45.83501" lon="4.52941">
        <ele>439</ele>
        <time>2022-02-15T17:22:10Z</time>
      </trkpt>
      <trkpt lat="45.83482" lon="4.52999">
        <ele>441</ele>
        <time>2022-02-15T17:23:10Z</time>
      </trkpt>
      <trkpt lat="45.83467" lon="4.53039">
        <ele>446</ele>
        <time>2022-02-15T17:23:52Z</time>
      </trkpt>
      <trkpt lat="45.83481" lon="4.53026">
        <ele>446</ele>
        <time>2022-02-15T17:24:14Z</time>
      </trkpt>
      <trkpt lat="45.83493" lon="4.53019">
        <ele>447</ele>
        <time>2022-02-15T17:24:31Z</time>
      </trkpt>
      <trkpt lat="45.83472" lon="4.53049">
        <ele>449</ele>
        <time>2022-02-15T17:25:11Z</time>
      </trkpt>
      <trkpt lat="45.83467" lon="4.5306">
        <ele>450</ele>
        <time>2022-02-15T17:25:23Z</time>
      </trkpt>
      <trkpt lat="45.83464" lon="4.53074">
        <ele>451</ele>
        <time>2022-02-15T17:25:37Z</time>
      </trkpt>
      <trkpt lat="45.83462" lon="4.53108">
        <ele>457</ele>
        <time>2022-02-15T17:26:09Z</time>
      </trkpt>
      <trkpt lat="45.83453" lon="4.53154">
        <ele>462</ele>
        <time>2022-02-15T17:26:53Z</time>
      </trkpt>
      <trkpt lat="45.83434" lon="4.53208">
        <ele>466</ele>
        <time>2022-02-15T17:27:49Z</time>
      </trkpt>
      <trkpt lat="45.8343" lon="4.53226">
        <ele>467</ele>
        <time>2022-02-15T17:28:07Z</time>
      </trkpt>
      <trkpt lat="45.83428" lon="4.5324">
        <ele>469</ele>
        <time>2022-02-15T17:28:20Z</time>
      </trkpt>
      <trkpt lat="45.83431" lon="4.53271">
        <ele>473</ele>
        <time>2022-02-15T17:28:49Z</time>
      </trkpt>
      <trkpt lat="45.83429" lon="4.53314">
        <ele>476</ele>
        <time>2022-02-15T17:29:29Z</time>
      </trkpt>
      <trkpt lat="45.8343" lon="4.53403">
        <ele>479</ele>
        <time>2022-02-15T17:30:52Z</time>
      </trkpt>
      <trkpt lat="45.83438" lon="4.53433">
        <ele>479</ele>
        <time>2022-02-15T17:31:22Z</time>
      </trkpt>
      <trkpt lat="45.83445" lon="4.53446">
        <ele>479</ele>
        <time>2022-02-15T17:31:37Z</time>
      </trkpt>
      <trkpt lat="45.83455" lon="4.53456">
        <ele>480</ele>
        <time>2022-02-15T17:31:53Z</time>
      </trkpt>
      <trkpt lat="45.83465" lon="4.53463">
        <ele>482</ele>
        <time>2022-02-15T17:32:08Z</time>
      </trkpt>
      <trkpt lat="45.83482" lon="4.53469">
        <ele>484</ele>
        <time>2022-02-15T17:32:32Z</time>
      </trkpt>
      <trkpt lat="45.83519" lon="4.53473">
        <ele>491</ele>
        <time>2022-02-15T17:33:21Z</time>
      </trkpt>
      <trkpt lat="45.83525" lon="4.53476">
        <ele>491</ele>
        <time>2022-02-15T17:33:30Z</time>
      </trkpt>
      <trkpt lat="45.83535" lon="4.53487">
        <ele>491</ele>
        <time>2022-02-15T17:33:46Z</time>
      </trkpt>
      <trkpt lat="45.83527" lon="4.53471">
        <ele>493</ele>
        <time>2022-02-15T17:34:05Z</time>
      </trkpt>
      <trkpt lat="45.83516" lon="4.53455">
        <ele>493</ele>
        <time>2022-02-15T17:34:26Z</time>
      </trkpt>
      <trkpt lat="45.83515" lon="4.53451">
        <ele>494</ele>
        <time>2022-02-15T17:34:30Z</time>
      </trkpt>
      <trkpt lat="45.83517" lon="4.53445">
        <ele>496</ele>
        <time>2022-02-15T17:34:36Z</time>
      </trkpt>
      <trkpt lat="45.83524" lon="4.53441">
        <ele>498</ele>
        <time>2022-02-15T17:34:46Z</time>
      </trkpt>
      <trkpt lat="45.83553" lon="4.53436">
        <ele>506</ele>
        <time>2022-02-15T17:35:25Z</time>
      </trkpt>
      <trkpt lat="45.8358" lon="4.53441">
        <ele>510</ele>
        <time>2022-02-15T17:36:01Z</time>
      </trkpt>
      <trkpt lat="45.83585" lon="4.53431">
        <ele>514</ele>
        <time>2022-02-15T17:36:13Z</time>
      </trkpt>
      <trkpt lat="45.83575" lon="4.53361">
        <ele>518</ele>
        <time>2022-02-15T17:37:19Z</time>
      </trkpt>
      <trkpt lat="45.83575" lon="4.53346">
        <ele>519</ele>
        <time>2022-02-15T17:37:33Z</time>
      </trkpt>
      <trkpt lat="45.83581" lon="4.53342">
        <ele>520</ele>
        <time>2022-02-15T17:37:42Z</time>
      </trkpt>
      <trkpt lat="45.83607" lon="4.53355">
        <ele>524</ele>
        <time>2022-02-15T17:38:19Z</time>
      </trkpt>
      <trkpt lat="45.83648" lon="4.53366">
        <ele>529</ele>
        <time>2022-02-15T17:39:14Z</time>
      </trkpt>
      <trkpt lat="45.83671" lon="4.53359">
        <ele>533</ele>
        <time>2022-02-15T17:39:46Z</time>
      </trkpt>
      <trkpt lat="45.83684" lon="4.53344">
        <ele>537</ele>
        <time>2022-02-15T17:40:08Z</time>
      </trkpt>
      <trkpt lat="45.83695" lon="4.53347">
        <ele>539</ele>
        <time>2022-02-15T17:40:23Z</time>
      </trkpt>
      <trkpt lat="45.83706" lon="4.5334">
        <ele>541</ele>
        <time>2022-02-15T17:40:39Z</time>
      </trkpt>
      <trkpt lat="45.83731" lon="4.53333">
        <ele>546</ele>
        <time>2022-02-15T17:41:13Z</time>
      </trkpt>
      <trkpt lat="45.83742" lon="4.53331">
        <ele>548</ele>
        <time>2022-02-15T17:41:28Z</time>
      </trkpt>
      <trkpt lat="45.83759" lon="4.53332">
        <ele>552</ele>
        <time>2022-02-15T17:41:50Z</time>
      </trkpt>
      <trkpt lat="45.83782" lon="4.53322">
        <ele>555</ele>
        <time>2022-02-15T17:42:22Z</time>
      </trkpt>
      <trkpt lat="45.83795" lon="4.53313">
        <ele>557</ele>
        <time>2022-02-15T17:42:42Z</time>
      </trkpt>
      <trkpt lat="45.83816" lon="4.53311">
        <ele>560</ele>
        <time>2022-02-15T17:43:10Z</time>
      </trkpt>
      <trkpt lat="45.83843" lon="4.5329">
        <ele>562</ele>
        <time>2022-02-15T17:43:51Z</time>
      </trkpt>
      <trkpt lat="45.83876" lon="4.5325">
        <ele>560</ele>
        <time>2022-02-15T17:44:48Z</time>
      </trkpt>
      <trkpt lat="45.83877" lon="4.53262">
        <ele>561</ele>
        <time>2022-02-15T17:45:00Z</time>
      </trkpt>
      <trkpt lat="45.83876" lon="4.5325">
        <ele>560</ele>
        <time>2022-02-15T17:45:11Z</time>
      </trkpt>
      <trkpt lat="45.83886" lon="4.53226">
        <ele>559</ele>
        <time>2022-02-15T17:45:37Z</time>
      </trkpt>
      <trkpt lat="45.8389" lon="4.53198">
        <ele>557</ele>
        <time>2022-02-15T17:46:03Z</time>
      </trkpt>
      <trkpt lat="45.839" lon="4.53156">
        <ele>556</ele>
        <time>2022-02-15T17:46:45Z</time>
      </trkpt>
      <trkpt lat="45.83908" lon="4.5313">
        <ele>556</ele>
        <time>2022-02-15T17:47:11Z</time>
      </trkpt>
      <trkpt lat="45.83912" lon="4.53089">
        <ele>556</ele>
        <time>2022-02-15T17:47:50Z</time>
      </trkpt>
      <trkpt lat="45.83915" lon="4.53074">
        <ele>557</ele>
        <time>2022-02-15T17:48:04Z</time>
      </trkpt>
      <trkpt lat="45.83924" lon="4.53014">
        <ele>562</ele>
        <time>2022-02-15T17:49:01Z</time>
      </trkpt>
      <trkpt lat="45.83935" lon="4.52949">
        <ele>566</ele>
        <time>2022-02-15T17:50:03Z</time>
      </trkpt>
      <trkpt lat="45.83946" lon="4.52917">
        <ele>568</ele>
        <time>2022-02-15T17:50:36Z</time>
      </trkpt>
      <trkpt lat="45.83952" lon="4.52892">
        <ele>567</ele>
        <time>2022-02-15T17:51:01Z</time>
      </trkpt>
      <trkpt lat="45.83952" lon="4.52806">
        <ele>568</ele>
        <time>2022-02-15T17:52:21Z</time>
      </trkpt>
      <trkpt lat="45.83955" lon="4.52775">
        <ele>568</ele>
        <time>2022-02-15T17:52:50Z</time>
      </trkpt>
      <trkpt lat="45.83969" lon="4.52696">
        <ele>569</ele>
        <time>2022-02-15T17:54:06Z</time>
      </trkpt>
      <trkpt lat="45.83973" lon="4.52651">
        <ele>569</ele>
        <time>2022-02-15T17:54:48Z</time>
      </trkpt>
      <trkpt lat="45.83984" lon="4.52588">
        <ele>566</ele>
        <time>2022-02-15T17:55:48Z</time>
      </trkpt>
      <trkpt lat="45.83994" lon="4.52543">
        <ele>563</ele>
        <time>2022-02-15T17:56:32Z</time>
      </trkpt>
      <trkpt lat="45.84009" lon="4.52506">
        <ele>560</ele>
        <time>2022-02-15T17:57:12Z</time>
      </trkpt>
      <trkpt lat="45.84032" lon="4.52464">
        <ele>558</ele>
        <time>2022-02-15T17:58:02Z</time>
      </trkpt>
      <trkpt lat="45.8408" lon="4.52505">
        <ele>554</ele>
        <time>2022-02-15T17:59:16Z</time>
      </trkpt>
      <trkpt lat="45.8413" lon="4.52505">
        <ele>545</ele>
        <time>2022-02-15T18:00:23Z</time>
      </trkpt>
      <trkpt lat="45.8418" lon="4.52508">
        <ele>537</ele>
        <time>2022-02-15T18:01:30Z</time>
      </trkpt>
      <trkpt lat="45.84225" lon="4.52551">
        <ele>519</ele>
        <time>2022-02-15T18:02:42Z</time>
      </trkpt>
      <trkpt lat="45.84287" lon="4.52634">
        <ele>493</ele>
        <time>2022-02-15T18:04:35Z</time>
      </trkpt>
      <trkpt lat="45.84317" lon="4.52685">
        <ele>481</ele>
        <time>2022-02-15T18:05:37Z</time>
      </trkpt>
      <trkpt lat="45.84341" lon="4.52709">
        <ele>475</ele>
        <time>2022-02-15T18:06:16Z</time>
      </trkpt>
      <trkpt lat="45.84363" lon="4.52736">
        <ele>466</ele>
        <time>2022-02-15T18:06:55Z</time>
      </trkpt>
      <trkpt lat="45.84447" lon="4.52812">
        <ele>446</ele>
        <time>2022-02-15T18:09:07Z</time>
      </trkpt>
      <trkpt lat="45.84471" lon="4.52851">
        <ele>439</ele>
        <time>2022-02-15T18:09:56Z</time>
      </trkpt>
      <trkpt lat="45.84461" lon="4.5285">
        <ele>440</ele>
        <time>2022-02-15T18:10:09Z</time>
      </trkpt>
      <trkpt lat="45.84471" lon="4.52851">
        <ele>439</ele>
        <time>2022-02-15T18:10:22Z</time>
      </trkpt>
      <trkpt lat="45.84517" lon="4.52871">
        <ele>434</ele>
        <time>2022-02-15T18:11:27Z</time>
      </trkpt>
      <trkpt lat="45.84514" lon="4.52918">
        <ele>426</ele>
        <time>2022-02-15T18:12:10Z</time>
      </trkpt>
      <trkpt lat="45.84514" lon="4.53027">
        <ele>418</ele>
        <time>2022-02-15T18:13:52Z</time>
      </trkpt>
      <trkpt lat="45.84518" lon="4.53047">
        <ele>416</ele>
        <time>2022-02-15T18:14:11Z</time>
      </trkpt>
      <trkpt lat="45.84527" lon="4.53067">
        <ele>415</ele>
        <time>2022-02-15T18:14:33Z</time>
      </trkpt>
      <trkpt lat="45.84541" lon="4.5309">
        <ele>413</ele>
        <time>2022-02-15T18:15:02Z</time>
      </trkpt>
      <trkpt lat="45.84554" lon="4.53161">
        <ele>408</ele>
        <time>2022-02-15T18:16:10Z</time>
      </trkpt>
      <trkpt lat="45.84522" lon="4.53204">
        <ele>406</ele>
        <time>2022-02-15T18:17:08Z</time>
      </trkpt>
      <trkpt lat="45.84499" lon="4.53327">
        <ele>404</ele>
        <time>2022-02-15T18:19:07Z</time>
      </trkpt>
      <trkpt lat="45.84499" lon="4.53378">
        <ele>404</ele>
        <time>2022-02-15T18:19:54Z</time>
      </trkpt>
      <trkpt lat="45.84366" lon="4.53479">
        <ele>430</ele>
        <time>2022-02-15T18:23:15Z</time>
      </trkpt>
      <trkpt lat="45.84346" lon="4.53434">
        <ele>432</ele>
        <time>2022-02-15T18:24:05Z</time>
      </trkpt>
      <trkpt lat="45.84337" lon="4.53424">
        <ele>434</ele>
        <time>2022-02-15T18:24:20Z</time>
      </trkpt>
      <trkpt lat="45.84328" lon="4.53423">
        <ele>435</ele>
        <time>2022-02-15T18:24:32Z</time>
      </trkpt>
      <trkpt lat="45.84325" lon="4.53444">
        <ele>437</ele>
        <time>2022-02-15T18:24:52Z</time>
      </trkpt>
      <trkpt lat="45.84317" lon="4.5347">
        <ele>440</ele>
        <time>2022-02-15T18:25:18Z</time>
      </trkpt>
      <trkpt lat="45.84269" lon="4.53577">
        <ele>451</ele>
        <time>2022-02-15T18:27:17Z</time>
      </trkpt>
      <trkpt lat="45.84262" lon="4.53599">
        <ele>453</ele>
        <time>2022-02-15T18:27:39Z</time>
      </trkpt>
      <trkpt lat="45.84229" lon="4.53675">
        <ele>463</ele>
        <time>2022-02-15T18:29:02Z</time>
      </trkpt>
      <trkpt lat="45.84203" lon="4.53725">
        <ele>467</ele>
        <time>2022-02-15T18:30:00Z</time>
      </trkpt>
      <trkpt lat="45.84194" lon="4.53736">
        <ele>469</ele>
        <time>2022-02-15T18:30:16Z</time>
      </trkpt>
      <trkpt lat="45.84184" lon="4.53741">
        <ele>471</ele>
        <time>2022-02-15T18:30:30Z</time>
      </trkpt>
      <trkpt lat="45.84177" lon="4.53756">
        <ele>471</ele>
        <time>2022-02-15T18:30:47Z</time>
      </trkpt>
      <trkpt lat="45.84172" lon="4.53761">
        <ele>471</ele>
        <time>2022-02-15T18:30:55Z</time>
      </trkpt>
      <trkpt lat="45.8417" lon="4.53767">
        <ele>470</ele>
        <time>2022-02-15T18:31:01Z</time>
      </trkpt>
      <trkpt lat="45.84153" lon="4.53786">
        <ele>469</ele>
        <time>2022-02-15T18:31:30Z</time>
      </trkpt>
      <trkpt lat="45.84133" lon="4.53801">
        <ele>471</ele>
        <time>2022-02-15T18:32:00Z</time>
      </trkpt>
      <trkpt lat="45.84117" lon="4.53808">
        <ele>473</ele>
        <time>2022-02-15T18:32:22Z</time>
      </trkpt>
      <trkpt lat="45.84107" lon="4.53814">
        <ele>474</ele>
        <time>2022-02-15T18:32:37Z</time>
      </trkpt>
      <trkpt lat="45.84066" lon="4.53828">
        <ele>480</ele>
        <time>2022-02-15T18:33:33Z</time>
      </trkpt>
      <trkpt lat="45.84059" lon="4.53829">
        <ele>480</ele>
        <time>2022-02-15T18:33:43Z</time>
      </trkpt>
      <trkpt lat="45.84048" lon="4.53824">
        <ele>484</ele>
        <time>2022-02-15T18:33:58Z</time>
      </trkpt>
      <trkpt lat="45.84027" lon="4.53819">
        <ele>489</ele>
        <time>2022-02-15T18:34:26Z</time>
      </trkpt>
      <trkpt lat="45.84012" lon="4.53819">
        <ele>492</ele>
        <time>2022-02-15T18:34:46Z</time>
      </trkpt>
      <trkpt lat="45.83984" lon="4.53829">
        <ele>492</ele>
        <time>2022-02-15T18:35:25Z</time>
      </trkpt>
      <trkpt lat="45.83972" lon="4.53828">
        <ele>493</ele>
        <time>2022-02-15T18:35:41Z</time>
      </trkpt>
      <trkpt lat="45.83948" lon="4.53832">
        <ele>493</ele>
        <time>2022-02-15T18:36:13Z</time>
      </trkpt>
      <trkpt lat="45.83925" lon="4.53826">
        <ele>497</ele>
        <time>2022-02-15T18:36:44Z</time>
      </trkpt>
      <trkpt lat="45.83912" lon="4.53826">
        <ele>498</ele>
        <time>2022-02-15T18:37:02Z</time>
      </trkpt>
      <trkpt lat="45.83892" lon="4.53826">
        <ele>498</ele>
        <time>2022-02-15T18:37:28Z</time>
      </trkpt>
      <trkpt lat="45.83867" lon="4.53833">
        <ele>495</ele>
        <time>2022-02-15T18:38:02Z</time>
      </trkpt>
      <trkpt lat="45.83853" lon="4.53832">
        <ele>495</ele>
        <time>2022-02-15T18:38:21Z</time>
      </trkpt>
      <trkpt lat="45.83819" lon="4.53825">
        <ele>495</ele>
        <time>2022-02-15T18:39:07Z</time>
      </trkpt>
      <trkpt lat="45.83807" lon="4.53817">
        <ele>494</ele>
        <time>2022-02-15T18:39:25Z</time>
      </trkpt>
      <trkpt lat="45.83787" lon="4.53811">
        <ele>492</ele>
        <time>2022-02-15T18:39:52Z</time>
      </trkpt>
      <trkpt lat="45.83766" lon="4.53797">
        <ele>491</ele>
        <time>2022-02-15T18:40:23Z</time>
      </trkpt>
      <trkpt lat="45.83735" lon="4.53782">
        <ele>488</ele>
        <time>2022-02-15T18:41:06Z</time>
      </trkpt>
      <trkpt lat="45.83719" lon="4.5377">
        <ele>487</ele>
        <time>2022-02-15T18:41:30Z</time>
      </trkpt>
      <trkpt lat="45.83706" lon="4.53754">
        <ele>488</ele>
        <time>2022-02-15T18:41:53Z</time>
      </trkpt>
      <trkpt lat="45.83698" lon="4.53738">
        <ele>489</ele>
        <time>2022-02-15T18:42:12Z</time>
      </trkpt>
      <trkpt lat="45.83692" lon="4.53732">
        <ele>488</ele>
        <time>2022-02-15T18:42:21Z</time>
      </trkpt>
      <trkpt lat="45.83669" lon="4.53697">
        <ele>486</ele>
        <time>2022-02-15T18:43:06Z</time>
      </trkpt>
      <trkpt lat="45.8358" lon="4.53608">
        <ele>478</ele>
        <time>2022-02-15T18:45:31Z</time>
      </trkpt>
      <trkpt lat="45.83572" lon="4.53602">
        <ele>478</ele>
        <time>2022-02-15T18:45:43Z</time>
      </trkpt>
      <trkpt lat="45.83568" lon="4.53612">
        <ele>477</ele>
        <time>2022-02-15T18:45:54Z</time>
      </trkpt>
      <trkpt lat="45.83532" lon="4.53677">
        <ele>470</ele>
        <time>2022-02-15T18:47:11Z</time>
      </trkpt>
      <trkpt lat="45.83484" lon="4.53793">
        <ele>470</ele>
        <time>2022-02-15T18:49:16Z</time>
      </trkpt>
      <trkpt lat="45.83463" lon="4.53864">
        <ele>469</ele>
        <time>2022-02-15T18:50:28Z</time>
      </trkpt>
      <trkpt lat="45.83423" lon="4.53961">
        <ele>468</ele>
        <time>2022-02-15T18:52:13Z</time>
      </trkpt>
      <trkpt lat="45.83411" lon="4.5398">
        <ele>467</ele>
        <time>2022-02-15T18:52:37Z</time>
      </trkpt>
      <trkpt lat="45.83351" lon="4.54052">
        <ele>465</ele>
        <time>2022-02-15T18:54:21Z</time>
      </trkpt>
      <trkpt lat="45.83339" lon="4.54071">
        <ele>466</ele>
        <time>2022-02-15T18:54:45Z</time>
      </trkpt>
      <trkpt lat="45.83334" lon="4.54083">
        <ele>467</ele>
        <time>2022-02-15T18:54:58Z</time>
      </trkpt>
      <trkpt lat="45.83336" lon="4.54136">
        <ele>466</ele>
        <time>2022-02-15T18:55:47Z</time>
      </trkpt>
      <trkpt lat="45.83332" lon="4.54217">
        <ele>464</ele>
        <time>2022-02-15T18:57:03Z</time>
      </trkpt>
      <trkpt lat="45.83329" lon="4.54248">
        <ele>463</ele>
        <time>2022-02-15T18:57:32Z</time>
      </trkpt>
      <trkpt lat="45.83319" lon="4.54316">
        <ele>460</ele>
        <time>2022-02-15T18:58:36Z</time>
      </trkpt>
      <trkpt lat="45.83312" lon="4.54346">
        <ele>459</ele>
        <time>2022-02-15T18:59:06Z</time>
      </trkpt>
      <trkpt lat="45.83275" lon="4.54444">
        <ele>459</ele>
        <time>2022-02-15T19:00:49Z</time>
      </trkpt>
      <trkpt lat="45.83263" lon="4.54493">
        <ele>459</ele>
        <time>2022-02-15T19:01:38Z</time>
      </trkpt>
      <trkpt lat="45.83265" lon="4.54508">
        <ele>458</ele>
        <time>2022-02-15T19:01:52Z</time>
      </trkpt>
      <trkpt lat="45.8327" lon="4.54531">
        <ele>459</ele>
        <time>2022-02-15T19:02:14Z</time>
      </trkpt>
      <trkpt lat="45.8329" lon="4.54589">
        <ele>459</ele>
        <time>2022-02-15T19:03:15Z</time>
      </trkpt>
      <trkpt lat="45.83292" lon="4.54601">
        <ele>459</ele>
        <time>2022-02-15T19:03:26Z</time>
      </trkpt>
      <trkpt lat="45.83293" lon="4.54614">
        <ele>460</ele>
        <time>2022-02-15T19:03:38Z</time>
      </trkpt>
      <trkpt lat="45.83291" lon="4.54638">
        <ele>462</ele>
        <time>2022-02-15T19:04:01Z</time>
      </trkpt>
      <trkpt lat="45.83283" lon="4.54673">
        <ele>465</ele>
        <time>2022-02-15T19:04:35Z</time>
      </trkpt>
      <trkpt lat="45.83274" lon="4.5469">
        <ele>467</ele>
        <time>2022-02-15T19:04:55Z</time>
      </trkpt>
      <trkpt lat="45.8325" lon="4.54723">
        <ele>471</ele>
        <time>2022-02-15T19:05:39Z</time>
      </trkpt>
      <trkpt lat="45.83215" lon="4.54781">
        <ele>471</ele>
        <time>2022-02-15T19:06:50Z</time>
      </trkpt>
      <trkpt lat="45.83206" lon="4.54799">
        <ele>471</ele>
        <time>2022-02-15T19:07:11Z</time>
      </trkpt>
      <trkpt lat="45.83188" lon="4.54871">
        <ele>469</ele>
        <time>2022-02-15T19:08:22Z</time>
      </trkpt>
      <trkpt lat="45.83181" lon="4.54912">
        <ele>467</ele>
        <time>2022-02-15T19:09:01Z</time>
      </trkpt>
      <trkpt lat="45.83175" lon="4.54931">
        <ele>466</ele>
        <time>2022-02-15T19:09:21Z</time>
      </trkpt>
      <trkpt lat="45.83174" lon="4.54944">
        <ele>465</ele>
        <time>2022-02-15T19:09:33Z</time>
      </trkpt>
      <trkpt lat="45.83173" lon="4.54976">
        <ele>462</ele>
        <time>2022-02-15T19:10:03Z</time>
      </trkpt>
      <trkpt lat="45.83168" lon="4.55001">
        <ele>460</ele>
        <time>2022-02-15T19:10:27Z</time>
      </trkpt>
      <trkpt lat="45.83155" lon="4.55035">
        <ele>457</ele>
        <time>2022-02-15T19:11:03Z</time>
      </trkpt>
      <trkpt lat="45.83132" lon="4.55085">
        <ele>453</ele>
        <time>2022-02-15T19:11:59Z</time>
      </trkpt>
      <trkpt lat="45.83108" lon="4.55141">
        <ele>453</ele>
        <time>2022-02-15T19:13:00Z</time>
      </trkpt>
      <trkpt lat="45.83095" lon="4.55177">
        <ele>453</ele>
        <time>2022-02-15T19:13:38Z</time>
      </trkpt>
      <trkpt lat="45.83072" lon="4.55228">
        <ele>452</ele>
        <time>2022-02-15T19:14:34Z</time>
      </trkpt>
      <trkpt lat="45.83058" lon="4.55265">
        <ele>452</ele>
        <time>2022-02-15T19:15:13Z</time>
      </trkpt>
      <trkpt lat="45.83047" lon="4.55291">
        <ele>453</ele>
        <time>2022-02-15T19:15:41Z</time>
      </trkpt>
      <trkpt lat="45.83048" lon="4.55295">
        <ele>453</ele>
        <time>2022-02-15T19:15:45Z</time>
      </trkpt>
      <trkpt lat="45.83047" lon="4.55291">
        <ele>453</ele>
        <time>2022-02-15T19:15:49Z</time>
      </trkpt>
      <trkpt lat="45.8303" lon="4.55295">
        <ele>454</ele>
        <time>2022-02-15T19:16:12Z</time>
      </trkpt>
      <trkpt lat="45.83017" lon="4.55301">
        <ele>455</ele>
        <time>2022-02-15T19:16:31Z</time>
      </trkpt>
      <trkpt lat="45.83006" lon="4.55312">
        <ele>457</ele>
        <time>2022-02-15T19:16:48Z</time>
      </trkpt>
      <trkpt lat="45.82949" lon="4.55343">
        <ele>461</ele>
        <time>2022-02-15T19:18:10Z</time>
      </trkpt>
      <trkpt lat="45.82927" lon="4.55357">
        <ele>463</ele>
        <time>2022-02-15T19:18:42Z</time>
      </trkpt>
      <trkpt lat="45.82861" lon="4.55415">
        <ele>467</ele>
        <time>2022-02-15T19:20:25Z</time>
      </trkpt>
      <trkpt lat="45.82799" lon="4.55486">
        <ele>468</ele>
        <time>2022-02-15T19:22:11Z</time>
      </trkpt>
      <trkpt lat="45.82731" lon="4.55555">
        <ele>469</ele>
        <time>2022-02-15T19:24:02Z</time>
      </trkpt>
      <trkpt lat="45.82717" lon="4.55568">
        <ele>470</ele>
        <time>2022-02-15T19:24:24Z</time>
      </trkpt>
      <trkpt lat="45.82683" lon="4.5559">
        <ele>474</ele>
        <time>2022-02-15T19:25:14Z</time>
      </trkpt>
      <trkpt lat="45.82664" lon="4.5562">
        <ele>474</ele>
        <time>2022-02-15T19:25:52Z</time>
      </trkpt>
      <trkpt lat="45.82643" lon="4.55649">
        <ele>475</ele>
        <time>2022-02-15T19:26:31Z</time>
      </trkpt>
      <trkpt lat="45.82636" lon="4.55674">
        <ele>475</ele>
        <time>2022-02-15T19:26:56Z</time>
      </trkpt>
      <trkpt lat="45.82624" lon="4.55703">
        <ele>475</ele>
        <time>2022-02-15T19:27:27Z</time>
      </trkpt>
      <trkpt lat="45.82623" lon="4.55712">
        <ele>475</ele>
        <time>2022-02-15T19:27:36Z</time>
      </trkpt>
      <trkpt lat="45.82609" lon="4.55741">
        <ele>476</ele>
        <time>2022-02-15T19:28:09Z</time>
      </trkpt>
      <trkpt lat="45.82569" lon="4.55824">
        <ele>474</ele>
        <time>2022-02-15T19:29:42Z</time>
      </trkpt>
      <trkpt lat="45.82534" lon="4.55879">
        <ele>473</ele>
        <time>2022-02-15T19:30:52Z</time>
      </trkpt>
      <trkpt lat="45.82506" lon="4.55914">
        <ele>473</ele>
        <time>2022-02-15T19:31:41Z</time>
      </trkpt>
      <trkpt lat="45.82441" lon="4.55968">
        <ele>470</ele>
        <time>2022-02-15T19:33:21Z</time>
      </trkpt>
      <trkpt lat="45.82412" lon="4.56008">
        <ele>467</ele>
        <time>2022-02-15T19:34:15Z</time>
      </trkpt>
      <trkpt lat="45.82362" lon="4.5606">
        <ele>461</ele>
        <time>2022-02-15T19:35:37Z</time>
      </trkpt>
      <trkpt lat="45.82351" lon="4.56091">
        <ele>457</ele>
        <time>2022-02-15T19:36:10Z</time>
      </trkpt>
      <trkpt lat="45.8234" lon="4.56103">
        <ele>455</ele>
        <time>2022-02-15T19:36:28Z</time>
      </trkpt>
      <trkpt lat="45.8231" lon="4.56127">
        <ele>450</ele>
        <time>2022-02-15T19:37:14Z</time>
      </trkpt>
      <trkpt lat="45.82271" lon="4.56168">
        <ele>444</ele>
        <time>2022-02-15T19:38:19Z</time>
      </trkpt>
      <trkpt lat="45.82216" lon="4.56243">
        <ele>431</ele>
        <time>2022-02-15T19:40:00Z</time>
      </trkpt>
      <trkpt lat="45.82198" lon="4.56276">
        <ele>427</ele>
        <time>2022-02-15T19:40:39Z</time>
      </trkpt>
      <trkpt lat="45.82191" lon="4.56307">
        <ele>423</ele>
        <time>2022-02-15T19:41:09Z</time>
      </trkpt>
      <trkpt lat="45.82184" lon="4.5633">
        <ele>421</ele>
        <time>2022-02-15T19:41:32Z</time>
      </trkpt>
      <trkpt lat="45.82176" lon="4.56436">
        <ele>412</ele>
        <time>2022-02-15T19:43:12Z</time>
      </trkpt>
      <trkpt lat="45.82169" lon="4.56481">
        <ele>408</ele>
        <time>2022-02-15T19:43:55Z</time>
      </trkpt>
      <trkpt lat="45.8216" lon="4.56523">
        <ele>403</ele>
        <time>2022-02-15T19:44:35Z</time>
      </trkpt>
      <trkpt lat="45.82154" lon="4.56569">
        <ele>398</ele>
        <time>2022-02-15T19:45:19Z</time>
      </trkpt>
      <trkpt lat="45.82154" lon="4.56611">
        <ele>393</ele>
        <time>2022-02-15T19:45:58Z</time>
      </trkpt>
      <trkpt lat="45.8215" lon="4.56634">
        <ele>390</ele>
        <time>2022-02-15T19:46:20Z</time>
      </trkpt>
      <trkpt lat="45.82122" lon="4.56705">
        <ele>383</ele>
        <time>2022-02-15T19:47:36Z</time>
      </trkpt>
      <trkpt lat="45.82092" lon="4.56761">
        <ele>378</ele>
        <time>2022-02-15T19:48:42Z</time>
      </trkpt>
      <trkpt lat="45.82067" lon="4.56816">
        <ele>372</ele>
        <time>2022-02-15T19:49:43Z</time>
      </trkpt>
      <trkpt lat="45.82062" lon="4.56844">
        <ele>369</ele>
        <time>2022-02-15T19:50:10Z</time>
      </trkpt>
      <trkpt lat="45.8206" lon="4.56867">
        <ele>367</ele>
        <time>2022-02-15T19:50:31Z</time>
      </trkpt>
      <trkpt lat="45.82047" lon="4.56923">
        <ele>363</ele>
        <time>2022-02-15T19:51:26Z</time>
      </trkpt>
      <trkpt lat="45.82025" lon="4.56997">
        <ele>359</ele>
        <time>2022-02-15T19:52:41Z</time>
      </trkpt>
      <trkpt lat="45.82023" lon="4.57011">
        <ele>358</ele>
        <time>2022-02-15T19:52:54Z</time>
      </trkpt>
      <trkpt lat="45.8203" lon="4.57101">
        <ele>349</ele>
        <time>2022-02-15T19:54:18Z</time>
      </trkpt>
      <trkpt lat="45.82029" lon="4.57123">
        <ele>347</ele>
        <time>2022-02-15T19:54:39Z</time>
      </trkpt>
      <trkpt lat="45.82025" lon="4.57143">
        <ele>346</ele>
        <time>2022-02-15T19:54:58Z</time>
      </trkpt>
      <trkpt lat="45.82018" lon="4.57167">
        <ele>345</ele>
        <time>2022-02-15T19:55:22Z</time>
      </trkpt>
      <trkpt lat="45.81999" lon="4.57211">
        <ele>340</ele>
        <time>2022-02-15T19:56:10Z</time>
      </trkpt>
      <trkpt lat="45.81994" lon="4.57234">
        <ele>337</ele>
        <time>2022-02-15T19:56:33Z</time>
      </trkpt>
      <trkpt lat="45.81968" lon="4.57245">
        <ele>334</ele>
        <time>2022-02-15T19:57:09Z</time>
      </trkpt>
      <trkpt lat="45.81904" lon="4.57303">
        <ele>322</ele>
        <time>2022-02-15T19:58:50Z</time>
      </trkpt>
      <trkpt lat="45.8187" lon="4.57326">
        <ele>317</ele>
        <time>2022-02-15T19:59:40Z</time>
      </trkpt>
      <trkpt lat="45.81846" lon="4.57337">
        <ele>314</ele>
        <time>2022-02-15T20:00:14Z</time>
      </trkpt>
      <trkpt lat="45.8184" lon="4.57341">
        <ele>313</ele>
        <time>2022-02-15T20:00:23Z</time>
      </trkpt>
      <trkpt lat="45.81781" lon="4.57345">
        <ele>308</ele>
        <time>2022-02-15T20:01:42Z</time>
      </trkpt>
      <trkpt lat="45.81742" lon="4.57335">
        <ele>306</ele>
        <time>2022-02-15T20:02:34Z</time>
      </trkpt>
      <trkpt lat="45.81735" lon="4.57336">
        <ele>307</ele>
        <time>2022-02-15T20:02:44Z</time>
      </trkpt>
      <trkpt lat="45.81703" lon="4.57376">
        <ele>305</ele>
        <time>2022-02-15T20:03:40Z</time>
      </trkpt>
      <trkpt lat="45.81712" lon="4.57423">
        <ele>301</ele>
        <time>2022-02-15T20:04:26Z</time>
      </trkpt>
      <trkpt lat="45.81713" lon="4.57459">
        <ele>299</ele>
        <time>2022-02-15T20:04:59Z</time>
      </trkpt>
    </trkseg>
  </trk>
</gpx>